Uitenhage, South Africa
Current Conditions -  °F | °C
As of 5:00 AM on Monday 24 Nov 2014 (Local Time) from FAPE Reporting Station
Moderate Rain Moderate Rain  
Wind Chill: 64°   Ceiling: 500
Heat Index: 64°   Visibility: 4mi
Dew Point: 63°   Wind: 9mph
Humidity: 94%   Direction: 160°SSE
Pressure: 30.06"   Gusts: NA
Location:  33.76°S, 25.39°E
Report Text: FAPE 240300Z 16008KT 6000 RA SCT002 BKN005 18/17 Q1018 NOSIG
Loading
Personal Weather Stations






























Interactive Weather Map New forecast layout! Learn more

10-Day Weather Forecast

Advertisements
Track Severe Weather on mobile